createdAt,value
2022-12-08T00:02:03.065Z,81.90
2022-12-08T00:04:51.579Z,81.76
2022-12-08T00:07:36.993Z,81.90
2022-12-08T00:10:25.261Z,81.66
2022-12-08T00:12:54.144Z,81.88
2022-12-08T00:15:23.752Z,81.96
2022-12-08T00:17:52.084Z,81.99
2022-12-08T00:20:20.729Z,81.91
2022-12-08T00:22:49.528Z,81.95
2022-12-08T00:25:17.861Z,82.13
2022-12-08T00:27:46.336Z,82.12
2022-12-08T00:30:14.771Z,82.23
2022-12-08T00:32:44.333Z,81.90
2022-12-08T00:35:12.585Z,81.91
2022-12-08T00:37:40.805Z,82.32
2022-12-08T00:40:10.317Z,82.21
2022-12-08T00:42:38.534Z,81.84
2022-12-08T00:45:07.777Z,81.93
2022-12-08T00:47:36.025Z,82.26
2022-12-08T00:50:06.856Z,82.02
2022-12-08T00:52:35.850Z,82.40
2022-12-08T00:55:04.827Z,82.47
2022-12-08T00:57:33.617Z,82.06
2022-12-08T01:00:02.247Z,82.51
2022-12-08T01:02:33.395Z,82.52
2022-12-08T01:05:01.745Z,82.03
2022-12-08T01:07:32.796Z,82.02
2022-12-08T01:10:01.296Z,82.45
2022-12-08T01:12:31.577Z,82.37
2022-12-08T01:15:02.440Z,82.48
2022-12-08T01:17:33.380Z,82.52
2022-12-08T01:20:02.946Z,82.68
2022-12-08T01:22:35.360Z,82.57
2022-12-08T01:25:03.798Z,82.17
2022-12-08T01:27:32.399Z,82.26
2022-12-08T01:30:00.800Z,82.37
2022-12-08T01:32:29.010Z,82.51
2022-12-08T01:34:57.292Z,83.11
2022-12-08T01:37:25.567Z,82.68
2022-12-08T01:39:55.166Z,82.63
2022-12-08T01:42:24.338Z,82.51
2022-12-08T01:45:00.986Z,82.78
2022-12-08T01:47:33.873Z,82.63
2022-12-08T01:50:02.579Z,82.49
2022-12-08T01:52:36.296Z,82.67
2022-12-08T01:55:08.613Z,82.70
2022-12-08T01:57:41.032Z,82.74
2022-12-08T02:00:11.681Z,82.65
2022-12-08T02:02:47.408Z,82.79
2022-12-08T02:05:15.954Z,82.91
2022-12-08T02:07:44.976Z,82.90
2022-12-08T02:10:19.002Z,82.62
2022-12-08T02:12:47.666Z,82.90
2022-12-08T02:15:16.389Z,82.71
2022-12-08T02:17:54.352Z,82.68
2022-12-08T02:20:36.970Z,82.66
2022-12-08T02:23:11.397Z,82.68
2022-12-08T02:25:56.506Z,83.06
2022-12-08T02:28:40.246Z,82.76
2022-12-08T02:31:13.456Z,82.98
2022-12-08T02:33:55.711Z,83.17
2022-12-08T02:36:26.541Z,83.11
2022-12-08T02:39:01.215Z,82.91
2022-12-08T02:41:35.941Z,83.16
2022-12-08T02:44:09.473Z,83.23
2022-12-08T02:46:41.701Z,83.29
2022-12-08T02:49:13.482Z,83.63
2022-12-08T02:51:41.681Z,83.61
2022-12-08T02:54:10.005Z,83.59
2022-12-08T02:56:53.985Z,83.76
2022-12-08T02:59:29.796Z,83.23
2022-12-08T03:02:10.960Z,83.31
2022-12-08T03:04:47.413Z,83.66
2022-12-08T03:07:23.048Z,83.72
2022-12-08T03:09:55.524Z,84.27
2022-12-08T03:12:28.163Z,84.07
2022-12-08T03:14:58.413Z,84.43
2022-12-08T03:17:29.732Z,84.46
2022-12-08T03:19:59.859Z,84.33
2022-12-08T03:22:29.311Z,84.27
2022-12-08T03:24:58.305Z,84.42
2022-12-08T03:27:29.705Z,84.04
2022-12-08T03:30:00.008Z,84.03
2022-12-08T03:32:31.707Z,84.10
2022-12-08T03:35:03.415Z,84.26
2022-12-08T03:37:32.300Z,83.78
2022-12-08T03:40:00.490Z,83.69
2022-12-08T03:42:28.752Z,83.81
2022-12-08T03:44:57.033Z,83.98
2022-12-08T03:47:25.230Z,84.26
2022-12-08T03:49:53.507Z,84.10
2022-12-08T03:52:23.260Z,83.69
2022-12-08T03:54:51.525Z,84.35
2022-12-08T03:57:19.749Z,84.14
2022-12-08T03:59:48.919Z,85.21
2022-12-08T04:02:17.637Z,84.33
2022-12-08T04:04:46.386Z,83.66
2022-12-08T04:07:14.659Z,83.79
2022-12-08T04:09:45.092Z,83.55
2022-12-08T04:12:13.300Z,83.79
2022-12-08T04:14:41.712Z,84.44
2022-12-08T04:17:09.951Z,83.85
2022-12-08T04:19:38.240Z,83.93
2022-12-08T04:22:06.498Z,83.82
2022-12-08T04:24:34.729Z,83.66
2022-12-08T04:27:04.419Z,84.00
2022-12-08T04:29:32.721Z,85.07
2022-12-08T04:32:01.176Z,85.64
2022-12-08T04:34:29.589Z,85.25
2022-12-08T04:36:57.904Z,85.75
2022-12-08T04:39:26.145Z,85.89
2022-12-08T04:41:54.387Z,86.68
2022-12-08T04:44:24.084Z,86.40
2022-12-08T04:46:52.406Z,85.61
2022-12-08T04:49:20.760Z,86.07
2022-12-08T04:51:49.149Z,86.03
2022-12-08T04:54:17.385Z,86.31
2022-12-08T04:56:45.680Z,85.79
2022-12-08T04:59:14.045Z,87.09
2022-12-08T05:01:43.799Z,86.55
2022-12-08T05:04:12.773Z,87.67
2022-12-08T05:06:41.306Z,87.62
2022-12-08T05:09:10.101Z,88.22
2022-12-08T05:11:46.977Z,88.33
2022-12-08T05:14:18.018Z,89.76
2022-12-08T05:16:47.981Z,90.30
2022-12-08T05:19:17.128Z,89.65
2022-12-08T05:21:45.445Z,89.59
2022-12-08T05:24:13.773Z,90.05
2022-12-08T05:26:42.026Z,89.89
2022-12-08T05:29:10.190Z,90.60
2022-12-08T05:31:38.727Z,90.65
2022-12-08T05:34:08.354Z,90.87
2022-12-08T05:36:37.114Z,89.87
2022-12-08T05:39:05.627Z,90.02
2022-12-08T05:41:34.044Z,89.88
2022-12-08T05:44:02.283Z,90.14
2022-12-08T05:46:30.674Z,90.48
2022-12-08T05:49:00.821Z,90.51
2022-12-08T05:51:30.932Z,90.30
2022-12-08T05:53:59.476Z,90.56
2022-12-08T05:56:27.773Z,91.33
2022-12-08T05:58:56.143Z,92.32
2022-12-08T06:01:26.096Z,91.67
2022-12-08T06:03:54.581Z,91.08
2022-12-08T06:06:23.810Z,90.37
2022-12-08T06:08:54.312Z,90.44
2022-12-08T06:11:25.224Z,89.85
2022-12-08T06:13:53.690Z,90.63
2022-12-08T06:16:22.440Z,89.86
2022-12-08T06:18:51.011Z,89.86
2022-12-08T06:21:19.862Z,89.63
2022-12-08T06:23:49.839Z,89.05
2022-12-08T06:26:19.821Z,88.54
2022-12-08T06:28:48.018Z,88.68
2022-12-08T06:31:18.257Z,88.05
2022-12-08T06:33:46.708Z,88.33
2022-12-08T06:36:16.907Z,88.76
2022-12-08T06:38:45.651Z,88.34
2022-12-08T06:41:14.871Z,88.16
2022-12-08T06:43:45.302Z,88.23
2022-12-08T06:46:16.197Z,88.02
2022-12-08T06:48:44.652Z,88.30
2022-12-08T06:51:14.134Z,88.90
2022-12-08T06:53:43.345Z,88.89
2022-12-08T06:56:12.360Z,89.21
2022-12-08T06:58:40.924Z,89.19
2022-12-08T07:01:12.433Z,88.93
2022-12-08T07:03:43.643Z,89.07
2022-12-08T07:06:17.076Z,88.70
2022-12-08T07:08:45.420Z,88.33
2022-12-08T07:11:20.938Z,88.49
2022-12-08T07:13:50.253Z,88.23
2022-12-08T07:16:20.144Z,88.41
2022-12-08T07:18:48.617Z,88.13
2022-12-08T07:21:18.010Z,87.36
2022-12-08T07:24:26.731Z,87.71
2022-12-08T07:26:55.087Z,87.93
2022-12-08T07:29:26.353Z,87.51
2022-12-08T07:31:56.358Z,87.47
2022-12-08T07:34:24.648Z,87.13
2022-12-08T07:36:52.852Z,87.07
2022-12-08T07:39:21.128Z,88.59
2022-12-08T07:41:49.270Z,87.79
2022-12-08T07:44:17.745Z,87.21
2022-12-08T07:46:46.216Z,88.08
2022-12-08T07:49:15.897Z,88.42
2022-12-08T07:51:44.123Z,87.31
2022-12-08T07:54:13.616Z,86.57
2022-12-08T07:56:41.815Z,86.07
2022-12-08T07:59:10.025Z,85.92
2022-12-08T08:01:41.393Z,85.20
2022-12-08T08:04:13.315Z,85.40
2022-12-08T08:06:43.006Z,85.06
2022-12-08T08:09:11.297Z,85.46
2022-12-08T08:11:39.470Z,84.81
2022-12-08T08:14:07.829Z,85.12
2022-12-08T08:16:38.533Z,84.60
2022-12-08T08:19:07.129Z,84.41
2022-12-08T08:21:50.732Z,84.02
2022-12-08T08:24:21.670Z,84.03
2022-12-08T08:26:50.098Z,84.34
2022-12-08T08:29:18.296Z,84.25
2022-12-08T08:31:47.073Z,84.51
2022-12-08T08:34:15.380Z,83.36
2022-12-08T08:36:43.629Z,84.21
2022-12-08T08:39:12.708Z,83.59
2022-12-08T08:41:42.532Z,83.62
2022-12-08T08:44:10.748Z,83.12
2022-12-08T08:46:39.021Z,83.06
2022-12-08T08:49:07.465Z,82.84
2022-12-08T08:51:35.840Z,82.88
2022-12-08T08:54:04.144Z,82.48
2022-12-08T08:56:32.410Z,82.33
2022-12-08T08:59:03.127Z,82.72
2022-12-08T09:01:31.666Z,82.86
2022-12-08T09:04:01.660Z,82.58
2022-12-08T09:06:30.219Z,82.22
2022-12-08T09:08:58.562Z,82.67
2022-12-08T09:11:27.009Z,82.42
2022-12-08T09:13:55.931Z,81.68
2022-12-08T09:16:25.972Z,82.44
2022-12-08T09:18:54.470Z,82.58
2022-12-08T09:21:24.749Z,82.57
2022-12-08T09:23:54.161Z,82.49
2022-12-08T09:26:23.339Z,82.21
2022-12-08T09:28:51.602Z,82.20
2022-12-08T09:31:21.261Z,81.74
2022-12-08T09:33:52.737Z,82.40
2022-12-08T09:36:22.553Z,82.35
2022-12-08T09:38:51.879Z,82.55
2022-12-08T09:41:28.294Z,81.74
2022-12-08T09:44:06.279Z,82.20
2022-12-08T09:46:35.595Z,81.86
2022-12-08T09:49:05.935Z,81.85
2022-12-08T09:51:37.562Z,81.65
2022-12-08T09:54:09.924Z,82.13
2022-12-08T09:56:38.752Z,82.24
2022-12-08T09:59:18.662Z,83.25
2022-12-08T10:01:47.091Z,83.72
2022-12-08T10:04:25.193Z,83.21
2022-12-08T10:07:04.990Z,83.34
2022-12-08T10:09:39.397Z,83.25
2022-12-08T10:12:16.429Z,82.94
2022-12-08T10:14:46.230Z,82.76
2022-12-08T10:17:19.350Z,82.47
2022-12-08T10:19:49.929Z,82.40
2022-12-08T10:22:22.728Z,82.49
2022-12-08T10:24:59.703Z,82.41
2022-12-08T10:27:28.065Z,82.11
2022-12-08T10:29:56.233Z,82.48
2022-12-08T10:32:25.346Z,82.27
2022-12-08T10:35:10.150Z,82.40
2022-12-08T10:37:39.740Z,82.33
2022-12-08T10:40:12.292Z,82.24
2022-12-08T10:42:43.256Z,82.46
2022-12-08T10:45:22.360Z,83.05
2022-12-08T10:47:58.232Z,82.43
2022-12-08T10:50:33.109Z,81.80
2022-12-08T10:53:02.499Z,81.94
2022-12-08T10:55:31.442Z,82.49
2022-12-08T10:57:59.713Z,82.35
2022-12-08T11:00:29.592Z,82.57
2022-12-08T11:03:00.735Z,82.10
2022-12-08T11:05:33.949Z,82.32
2022-12-08T11:08:03.692Z,82.16
2022-12-08T11:10:36.628Z,82.46
2022-12-08T11:13:07.203Z,81.98
2022-12-08T11:15:38.859Z,82.70
2022-12-08T11:18:23.787Z,81.95
2022-12-08T11:21:03.713Z,82.27
2022-12-08T11:23:32.227Z,82.16
2022-12-08T11:26:06.746Z,82.53
2022-12-08T11:28:35.079Z,82.46
2022-12-08T11:31:08.465Z,82.59
2022-12-08T11:33:36.874Z,82.82
2022-12-08T11:36:09.152Z,82.77
2022-12-08T11:38:43.878Z,82.93
2022-12-08T11:41:16.365Z,82.64
2022-12-08T11:43:49.635Z,82.57
2022-12-08T11:46:21.459Z,83.03
2022-12-08T11:48:52.325Z,83.93
2022-12-08T11:51:25.386Z,86.39
2022-12-08T11:54:08.200Z,87.24
2022-12-08T11:56:38.398Z,87.26
2022-12-08T11:59:14.289Z,85.62
2022-12-08T12:01:42.902Z,85.56
2022-12-08T12:04:17.679Z,86.41
2022-12-08T12:07:42.224Z,85.99
2022-12-08T12:10:24.928Z,85.12
2022-12-08T12:13:18.492Z,85.56
2022-12-08T12:16:31.208Z,85.10
2022-12-08T12:19:01.438Z,85.01
2022-12-08T12:21:33.408Z,85.79
2022-12-08T12:24:05.133Z,85.31
2022-12-08T12:26:38.839Z,85.51
2022-12-08T12:29:08.865Z,85.60
2022-12-08T12:31:39.585Z,85.59
2022-12-08T12:34:10.303Z,85.99
2022-12-08T12:36:53.171Z,86.00
2022-12-08T12:39:23.415Z,85.22
2022-12-08T12:42:01.354Z,85.47
2022-12-08T12:44:41.005Z,85.41
2022-12-08T12:47:16.773Z,85.34
2022-12-08T12:49:53.903Z,84.74
2022-12-08T12:52:55.709Z,85.18
2022-12-08T12:55:26.138Z,84.91
2022-12-08T12:57:57.357Z,84.77
2022-12-08T13:00:26.996Z,84.59
2022-12-08T13:02:55.953Z,85.03
2022-12-08T13:05:27.101Z,84.88
2022-12-08T13:07:57.024Z,85.16
2022-12-08T13:10:27.416Z,85.16
2022-12-08T13:13:09.693Z,84.81
2022-12-08T13:15:40.189Z,85.09
2022-12-08T13:18:09.298Z,84.65
2022-12-08T13:20:43.361Z,85.60
2022-12-08T13:23:27.716Z,85.92
2022-12-08T13:26:20.647Z,85.64
2022-12-08T13:29:16.665Z,86.13
2022-12-08T13:31:50.890Z,86.09
2022-12-08T13:34:29.218Z,86.89
2022-12-08T13:37:04.048Z,87.46
2022-12-08T13:39:38.254Z,87.29
2022-12-08T13:42:13.561Z,87.27
2022-12-08T13:45:24.270Z,86.69
2022-12-08T13:47:59.932Z,87.09
2022-12-08T13:59:30.620Z,87.06
2022-12-08T14:02:03.818Z,87.77
2022-12-08T14:05:01.271Z,86.70
2022-12-08T14:07:22.855Z,86.60
2022-12-08T14:09:51.333Z,86.55
2022-12-08T14:12:22.313Z,86.64
2022-12-08T14:15:08.328Z,86.71
2022-12-08T14:17:41.023Z,87.52
2022-12-08T14:20:21.414Z,87.08
2022-12-08T14:22:50.459Z,86.81
2022-12-08T14:25:19.335Z,87.22
2022-12-08T14:27:48.356Z,87.31
2022-12-08T14:30:22.698Z,87.24
2022-12-08T14:32:54.400Z,87.28
2022-12-08T14:35:25.342Z,87.58
2022-12-08T14:37:56.576Z,87.24
2022-12-08T14:40:26.805Z,87.06
2022-12-08T14:43:05.635Z,87.07
2022-12-08T14:45:35.571Z,87.88
2022-12-08T14:48:26.806Z,87.25
2022-12-08T14:51:01.879Z,87.30
2022-12-08T14:53:37.987Z,86.46
2022-12-08T14:56:10.219Z,87.37
2022-12-08T14:58:38.513Z,86.35
2022-12-08T15:01:10.429Z,86.40
2022-12-08T15:03:40.297Z,86.75
2022-12-08T15:06:09.880Z,86.56
2022-12-08T15:08:53.620Z,86.45
2022-12-08T15:11:36.886Z,87.23
2022-12-08T15:14:05.390Z,86.79
2022-12-08T15:16:40.574Z,86.89
2022-12-08T15:19:23.612Z,86.66
2022-12-08T15:21:52.309Z,86.86
2022-12-08T15:24:21.224Z,86.33
2022-12-08T15:26:51.551Z,86.26
2022-12-08T15:29:22.709Z,85.98
2022-12-08T15:31:54.020Z,86.77
2022-12-08T15:34:23.776Z,85.98
2022-12-08T15:36:53.592Z,86.35
2022-12-08T15:39:32.671Z,86.17
2022-12-08T15:42:01.635Z,86.15
2022-12-08T15:44:32.662Z,85.59
2022-12-08T15:47:02.362Z,86.12
2022-12-08T15:49:32.136Z,85.97
2022-12-08T15:52:11.251Z,85.99
2022-12-08T15:54:40.358Z,86.05
2022-12-08T15:57:19.470Z,86.23
2022-12-08T15:59:48.679Z,86.79
2022-12-08T16:02:22.368Z,86.75
2022-12-08T16:07:41.565Z,85.95
2022-12-08T16:10:12.827Z,85.70
2022-12-08T16:13:55.372Z,85.73
2022-12-08T16:15:58.635Z,86.21
2022-12-08T16:18:30.104Z,85.82
2022-12-08T16:23:55.734Z,85.56
2022-12-08T16:27:06.817Z,85.56
2022-12-08T16:29:19.604Z,86.26
2022-12-08T16:31:48.296Z,85.66
2022-12-08T16:34:16.872Z,85.27
2022-12-08T16:36:46.575Z,86.15
2022-12-08T16:39:15.323Z,85.93
2022-12-08T16:42:01.347Z,85.45
2022-12-08T16:44:29.690Z,85.70
2022-12-08T16:46:58.090Z,85.18
2022-12-08T16:49:26.626Z,85.80
2022-12-08T16:51:56.330Z,85.34
2022-12-08T16:54:24.661Z,85.83
2022-12-08T16:56:52.853Z,85.82
2022-12-08T16:59:21.145Z,85.91
2022-12-08T17:01:49.398Z,86.10
2022-12-08T17:04:33.150Z,86.49
2022-12-08T17:07:03.266Z,86.72
2022-12-08T17:09:32.499Z,86.15
2022-12-08T17:12:04.109Z,86.84
2022-12-08T17:14:34.822Z,86.75
2022-12-08T17:17:03.348Z,86.14
2022-12-08T17:19:32.385Z,86.08
2022-12-08T17:22:00.760Z,86.75
2022-12-08T17:24:30.466Z,86.55
2022-12-08T17:27:00.159Z,87.11
2022-12-08T17:29:28.557Z,86.29
2022-12-08T17:31:56.830Z,86.25
2022-12-08T17:34:25.184Z,86.02
2022-12-08T17:36:53.605Z,86.59
2022-12-08T17:39:21.928Z,87.18
2022-12-08T17:41:51.586Z,87.27
2022-12-08T17:44:21.350Z,86.88
2022-12-08T17:46:52.978Z,86.62
2022-12-08T17:49:23.582Z,87.03
2022-12-08T17:51:54.966Z,86.84
2022-12-08T17:54:23.544Z,87.93
2022-12-08T17:56:53.224Z,87.82
2022-12-08T17:59:21.863Z,86.95
2022-12-08T18:01:50.599Z,87.73
2022-12-08T18:04:18.952Z,86.68
2022-12-08T18:06:47.352Z,87.89
2022-12-08T18:09:16.495Z,86.90
2022-12-08T18:11:46.387Z,87.29
2022-12-08T18:14:16.901Z,87.30
2022-12-08T18:16:46.483Z,87.12
2022-12-08T18:19:15.847Z,87.41
2022-12-08T18:21:44.472Z,87.55
2022-12-08T18:24:18.374Z,88.29
2022-12-08T18:26:46.745Z,87.90
2022-12-08T18:29:16.423Z,87.60
2022-12-08T18:31:44.617Z,88.47
2022-12-08T18:34:12.943Z,87.86
2022-12-08T18:36:41.209Z,87.72
2022-12-08T18:39:22.721Z,88.19
2022-12-08T18:41:51.080Z,88.52
2022-12-08T18:44:21.086Z,88.60
2022-12-08T18:46:49.509Z,88.48
2022-12-08T18:49:19.252Z,89.08
2022-12-08T18:51:47.857Z,88.75
2022-12-08T18:54:16.452Z,89.70
2022-12-08T18:56:44.906Z,89.04
2022-12-08T18:59:13.778Z,89.46
2022-12-08T19:01:43.813Z,89.89
2022-12-08T19:04:28.724Z,89.14
2022-12-08T19:06:58.275Z,89.27
2022-12-08T19:09:27.160Z,90.30
2022-12-08T19:11:55.540Z,90.13
2022-12-08T19:14:28.291Z,90.35
2022-12-08T19:16:58.844Z,90.04
2022-12-08T19:19:27.598Z,90.77
2022-12-08T19:21:55.817Z,90.53
2022-12-08T19:24:24.443Z,90.99
2022-12-08T19:26:52.877Z,90.23
2022-12-08T19:29:21.423Z,91.00
2022-12-08T19:31:49.784Z,91.57
2022-12-08T19:34:19.687Z,91.78
2022-12-08T19:36:47.865Z,91.10
2022-12-08T19:39:35.779Z,91.31
2022-12-08T19:42:22.036Z,91.58
2022-12-08T19:44:56.088Z,91.30
2022-12-08T19:47:26.029Z,91.90
2022-12-08T19:50:17.009Z,91.73
2022-12-08T19:52:45.676Z,92.31
2022-12-08T19:55:14.710Z,91.52
2022-12-08T19:57:43.607Z,92.47
2022-12-08T20:00:13.669Z,91.86
2022-12-08T20:02:42.007Z,92.07
2022-12-08T20:05:13.441Z,92.35
2022-12-08T20:07:41.749Z,92.87
2022-12-08T20:10:14.292Z,92.42
2022-12-08T20:12:42.601Z,92.59
2022-12-08T20:15:11.800Z,92.62
2022-12-08T20:17:42.143Z,92.79
2022-12-08T20:20:16.181Z,92.35
2022-12-08T20:22:45.446Z,93.38
2022-12-08T20:25:14.221Z,92.03
2022-12-08T20:27:42.916Z,91.77
2022-12-08T20:30:17.045Z,92.64
2022-12-08T20:32:46.592Z,92.65
2022-12-08T20:35:16.338Z,92.01
2022-12-08T20:37:45.074Z,91.95
2022-12-08T20:40:13.848Z,92.68
2022-12-08T20:42:42.317Z,92.38
2022-12-08T20:45:10.987Z,92.28
2022-12-08T20:47:39.372Z,92.90
2022-12-08T20:50:09.208Z,92.92
2022-12-08T20:52:41.831Z,92.17
2022-12-08T20:55:11.204Z,93.14
2022-12-08T20:57:39.527Z,93.05
2022-12-08T21:00:09.453Z,92.18
2022-12-08T21:02:43.322Z,93.10
2022-12-08T21:05:15.686Z,92.66
2022-12-08T21:07:45.550Z,92.94
2022-12-08T21:10:13.834Z,93.43
2022-12-08T21:12:42.204Z,93.36
2022-12-08T21:15:12.829Z,92.59
2022-12-08T21:17:41.418Z,93.49
2022-12-08T21:20:10.673Z,93.08
2022-12-08T21:22:40.377Z,94.08
2022-12-08T21:25:10.884Z,93.82
2022-12-08T21:27:39.740Z,94.18
2022-12-08T21:30:10.669Z,93.15
2022-12-08T21:32:40.214Z,93.27
2022-12-08T21:35:09.783Z,93.80
2022-12-08T21:37:38.679Z,93.64
2022-12-08T21:40:08.444Z,93.21
2022-12-08T21:42:47.636Z,93.14
2022-12-08T21:45:17.355Z,93.31
2022-12-08T21:47:45.983Z,93.59
2022-12-08T21:50:15.050Z,93.61
2022-12-08T21:52:45.086Z,93.08
2022-12-08T21:55:14.368Z,93.13
2022-12-08T21:57:44.552Z,93.90
2022-12-08T22:00:16.556Z,93.97
2022-12-08T22:02:45.684Z,94.00
2022-12-08T22:05:14.328Z,92.97
2022-12-08T22:07:43.679Z,93.48
2022-12-08T22:10:12.812Z,93.14
2022-12-08T22:12:41.413Z,93.53
2022-12-08T22:15:12.365Z,93.64
2022-12-08T22:17:42.278Z,92.50
2022-12-08T22:20:12.999Z,93.06
2022-12-08T22:22:41.356Z,92.60
2022-12-08T22:25:12.109Z,93.63
2022-12-08T22:27:42.612Z,92.48
2022-12-08T22:30:13.195Z,93.23
2022-12-08T22:32:42.070Z,92.13
2022-12-08T22:35:11.661Z,92.42
2022-12-08T22:37:39.865Z,92.63
2022-12-08T22:40:10.032Z,92.14
2022-12-08T22:42:38.640Z,92.38
2022-12-08T22:45:07.822Z,91.94
2022-12-08T22:47:37.476Z,92.88
2022-12-08T22:50:07.274Z,92.60
2022-12-08T22:52:36.129Z,92.08
2022-12-08T22:55:04.311Z,92.08
2022-12-08T22:57:32.768Z,92.26
2022-12-08T23:00:00.997Z,92.49
2022-12-08T23:02:29.347Z,92.42
2022-12-08T23:04:59.168Z,91.76
2022-12-08T23:07:28.187Z,91.85
2022-12-08T23:09:56.494Z,91.53
2022-12-08T23:12:25.420Z,91.28
2022-12-08T23:14:53.671Z,91.63
2022-12-08T23:17:22.093Z,91.14
2022-12-08T23:19:50.544Z,90.94
2022-12-08T23:22:20.162Z,91.48
2022-12-08T23:24:48.547Z,91.53
2022-12-08T23:27:16.868Z,91.29
2022-12-08T23:29:45.290Z,91.36
2022-12-08T23:32:13.584Z,90.90
2022-12-08T23:34:41.925Z,91.54
2022-12-08T23:37:10.261Z,90.36
2022-12-08T23:39:40.481Z,90.21
2022-12-08T23:42:08.932Z,90.80
2022-12-08T23:44:37.348Z,90.75
2022-12-08T23:47:05.708Z,90.41
2022-12-08T23:49:34.639Z,91.04
2022-12-08T23:52:02.878Z,91.46
2022-12-08T23:54:31.331Z,90.93
2022-12-08T23:57:01.067Z,91.89
2022-12-08T23:59:29.490Z,91.51
